X  Close Metar Aviation Weather Data     CYYC Calgary International Airport
Temperature
8°C Temperature
5°C Dewpoint
82% Humidity



Wind
5 KM/H
3 MPH
1 M/S
3 KTS



200°
SSW
Current Conditions

Clear Clear
Pressure 1012.52 (hPa) - 29.9 (inHg)
Visibility 14.9 (mile) - 24 (km)
Airport
Airport-code CYYC

Location: Calgary International Airport
Distance: 4 (km)

Metar:
CYYC 210900Z 20003KT 15SM SKC 08/05 A2990 RMK SLP134 DENSITY ALT 3700FT

Time: 21-09-2020 03:00 MDT